Lyons, WI (53148)

12:08 PM CST on February 11, 2016 (GMT -0600)
Lyons | | Change Station
CLOSE
Current Station
Personal Weather Station
Location: Burlington, WI
Elevation: 814 ft
Nearby Weather Stations

Elev 814 ft 42.65 °N, 88.36 °W | Updated 15 seconds ago

Clear
Clear
15.6 °F
Feels Like 10 °F
N
3.4
Wind Variable Wind from NW
Gusts 4.9 mph

Today
High -- | Low -- °F
--% Chance of Precip.
Yesterday
High -- | Low -- °F
Precip. -- in
Pressure 30.31 in
Visibility 10.0 miles
Clouds Clear
Windchill 10 °F
Dew Point -7 °F
Humidity 35%
Rainfall 0.00 in
Snow Depth Not available.
6:56 AM 5:19 PM
Waxing Crescent, 13% visible
METAR KBUU 111755Z AUTO 29007KT 10SM CLR M10/M18 A3031 RMK AO2 T10961180 11095 21181
Pressure 30.31 in
Visibility 10.0 miles
Clouds Clear
Windchill 10 °F
Dew Point -7 °F
Humidity 35%
Rainfall 0.00 in
Snow Depth Not available.
6:56 AM 5:19 PM
Waxing Crescent, 13% visible
METAR KBUU 111755Z AUTO 29007KT 10SM CLR M10/M18 A3031 RMK AO2 T10961180 11095 21181

10-Day Weather Forecast

Almanac

Astronomy

Feb. 11, 2016 Rise Set
Actual Time
Civil Twilight
Nautical Twilight
Astronomical Twilight
Moon
Length of Visible Light
Length of Day
Tomorrow will be .
, % of the Moon is Illuminated

Today's Extremes

State Highs State Lows

Community

WunderPhotos

Upload Photos

1,892,121 photos uploaded!

WunderBlog® & News

Nearby

Air Quality

  Air Quality AQ Index Pollutant
Not available.

Snow Depth

Station Depth Elevation

Earthquake Activity

City Distance Mag. Time & Date
Minimum magnitude displayed is 2.5.

Coastal Water Temperatures

Place Temperature

Stations

Nearby Weather Stations

Station Location Temp. Windchill Dew Point Humidity Wind Precip. Elev Updated Type
                   

Watches & Warnings

There are currently no watches in effect.